createdAt,value
2022-10-01T00:00:00.143Z,11.3
2022-10-01T00:05:00.125Z,14.7
2022-10-01T00:10:00.120Z,14.7
2022-10-01T00:15:03.098Z,12.5
2022-10-01T00:20:00.143Z,12.5
2022-10-01T00:25:00.151Z,12.6
2022-10-01T00:30:00.127Z,12.6
2022-10-01T00:35:00.132Z,13.4
2022-10-01T00:40:00.131Z,13.4
2022-10-01T00:45:00.124Z,11
2022-10-01T00:50:00.117Z,11
2022-10-01T00:55:00.134Z,12.7
2022-10-01T01:00:00.173Z,12.7
2022-10-01T01:05:00.120Z,13.6
2022-10-01T01:10:00.186Z,13.6
2022-10-01T01:15:00.108Z,12.6
2022-10-01T01:20:00.109Z,12.6
2022-10-01T01:25:00.124Z,11.1
2022-10-01T01:30:00.131Z,11.1
2022-10-01T01:35:00.125Z,16.2
2022-10-01T01:40:00.143Z,16.2
2022-10-01T01:45:00.137Z,13.8
2022-10-01T01:50:00.129Z,13.8
2022-10-01T01:55:00.141Z,14.1
2022-10-01T02:00:00.110Z,14.1
2022-10-01T02:05:00.114Z,13.8
2022-10-01T02:10:00.118Z,13.8
2022-10-01T02:15:00.129Z,14.2
2022-10-01T02:20:00.123Z,14.2
2022-10-01T02:25:00.135Z,15
2022-10-01T02:30:00.141Z,15
2022-10-01T02:35:00.115Z,17.2
2022-10-01T02:40:00.114Z,17.2
2022-10-01T02:45:00.116Z,16.5
2022-10-01T02:50:00.127Z,16.5
2022-10-01T02:55:00.137Z,17.6
2022-10-01T03:00:00.149Z,17.6
2022-10-01T03:05:00.141Z,16
2022-10-01T03:10:00.145Z,16
2022-10-01T03:15:00.138Z,19.2
2022-10-01T03:20:00.127Z,19.2
2022-10-01T03:25:00.134Z,17.8
2022-10-01T03:30:00.136Z,17.8
2022-10-01T03:35:00.133Z,18.8
2022-10-01T03:40:00.169Z,18.8
2022-10-01T03:45:00.123Z,20.3
2022-10-01T03:50:00.129Z,20.3
2022-10-01T03:55:00.130Z,16.8
2022-10-01T04:00:00.126Z,16.8
2022-10-01T04:05:00.171Z,19.4
2022-10-01T04:10:00.121Z,19.4
2022-10-01T04:15:00.118Z,19.6
2022-10-01T04:20:00.163Z,19.6
2022-10-01T04:25:00.194Z,19.7
2022-10-01T04:30:00.125Z,19.7
2022-10-01T04:35:00.117Z,22.2
2022-10-01T04:40:00.128Z,22.2
2022-10-01T04:45:00.137Z,17.8
2022-10-01T04:50:00.141Z,17.8
2022-10-01T04:55:00.131Z,18.1
2022-10-01T05:00:00.135Z,18.1
2022-10-01T05:05:00.113Z,15.8
2022-10-01T05:10:00.140Z,15.8
2022-10-01T05:15:00.129Z,17.6
2022-10-01T05:20:00.112Z,17.6
2022-10-01T05:25:00.234Z,17.2
2022-10-01T05:30:00.121Z,17.2
2022-10-01T05:35:00.115Z,14.5
2022-10-01T05:40:00.145Z,14.5
2022-10-01T05:45:00.113Z,13.3
2022-10-01T05:50:00.126Z,13.3
2022-10-01T05:55:00.118Z,13.2
2022-10-01T06:00:00.142Z,13.2
2022-10-01T06:05:00.116Z,14.1
2022-10-01T06:10:00.135Z,14.1
2022-10-01T06:15:00.114Z,12.1
2022-10-01T06:20:00.138Z,12.1
2022-10-01T06:25:00.155Z,12.5
2022-10-01T06:30:00.143Z,12.5
2022-10-01T06:35:00.107Z,9.9
2022-10-01T06:40:00.141Z,9.9
2022-10-01T06:45:00.112Z,10.4
2022-10-01T06:50:00.130Z,10.4
2022-10-01T06:55:00.122Z,7.4
2022-10-01T07:00:00.114Z,7.4
2022-10-01T07:05:00.150Z,8.1
2022-10-01T07:10:00.130Z,8.1
2022-10-01T07:15:00.112Z,5.8
2022-10-01T07:20:00.126Z,5.8
2022-10-01T07:25:00.137Z,7.4
2022-10-01T07:30:00.209Z,7.4
2022-10-01T07:35:00.129Z,6.5
2022-10-01T07:40:03.036Z,6.5
2022-10-01T07:45:00.109Z,6.3
2022-10-01T07:50:00.126Z,6.3
2022-10-01T07:55:00.127Z,5
2022-10-01T08:00:00.168Z,5
2022-10-01T08:05:00.127Z,6.4
2022-10-01T08:10:00.125Z,6.4
2022-10-01T08:15:00.117Z,6.4
2022-10-01T08:20:00.115Z,6.4
2022-10-01T08:25:00.163Z,7.2
2022-10-01T08:30:00.135Z,7.2
2022-10-01T08:35:00.203Z,7.3
2022-10-01T08:40:00.145Z,7.3
2022-10-01T08:45:00.119Z,6.9
2022-10-01T08:50:00.136Z,6.9
2022-10-01T08:55:05.104Z,6.7
2022-10-01T09:00:00.145Z,6.7
2022-10-01T09:05:01.712Z,4.2
2022-10-01T09:10:00.176Z,4.2
2022-10-01T09:15:00.134Z,4.5
2022-10-01T09:20:00.193Z,4.5
2022-10-01T09:25:00.165Z,4.7
2022-10-01T09:30:00.117Z,4.7
2022-10-01T09:35:04.178Z,5.3
2022-10-01T09:45:00.201Z,4.7
2022-10-01T09:50:00.178Z,4.7
2022-10-01T09:55:00.192Z,3.5
2022-10-01T10:00:00.166Z,3.5
2022-10-01T10:05:00.158Z,4
2022-10-01T10:10:00.143Z,4
2022-10-01T10:15:00.143Z,5.4
2022-10-01T10:20:00.122Z,5.4
2022-10-01T10:25:00.170Z,4
2022-10-01T10:30:00.155Z,4
2022-10-01T10:35:03.041Z,2.9
2022-10-01T10:40:00.150Z,2.9
2022-10-01T10:45:00.136Z,3.8
2022-10-01T10:50:00.167Z,3.8
2022-10-01T10:55:00.134Z,4.3
2022-10-01T11:00:00.152Z,4.3
2022-10-01T11:05:00.148Z,2.7
2022-10-01T11:10:00.166Z,2.7
2022-10-01T11:15:00.169Z,5.4
2022-10-01T11:20:00.172Z,5.4
2022-10-01T11:25:00.166Z,10.1
2022-10-01T11:30:00.169Z,10.1
2022-10-01T11:35:00.130Z,4.5
2022-10-01T11:40:00.128Z,4.5
2022-10-01T11:45:00.881Z,3.4
2022-10-01T11:50:00.150Z,3.4
2022-10-01T11:55:00.120Z,3.4
2022-10-01T12:00:00.177Z,3.4
2022-10-01T12:05:00.133Z,3.4
2022-10-01T12:10:00.113Z,3.4
2022-10-01T12:15:04.204Z,2.4
2022-10-01T12:20:00.107Z,2.4
2022-10-01T12:25:00.134Z,2.7
2022-10-01T12:30:00.122Z,2.7
2022-10-01T12:35:00.105Z,2.3
2022-10-01T12:40:00.115Z,2.3
2022-10-01T12:45:00.116Z,3
2022-10-01T12:50:00.139Z,3
2022-10-01T12:55:00.134Z,2.9
2022-10-01T13:00:00.112Z,2.9
2022-10-01T13:05:00.113Z,3
2022-10-01T13:10:00.131Z,3
2022-10-01T13:15:00.126Z,3.3
2022-10-01T13:20:00.123Z,3.3
2022-10-01T13:25:00.131Z,3.2
2022-10-01T13:30:00.221Z,3.2
2022-10-01T13:35:00.136Z,3
2022-10-01T13:40:00.123Z,3
2022-10-01T13:45:00.117Z,2.4
2022-10-01T13:50:00.136Z,2.4
2022-10-01T13:55:00.116Z,3.8
2022-10-01T14:00:00.166Z,3.8
2022-10-01T14:05:00.131Z,3.9
2022-10-01T14:10:00.159Z,3.9
2022-10-01T14:15:00.119Z,2.5
2022-10-01T14:20:00.164Z,2.5
2022-10-01T14:25:00.120Z,2.6
2022-10-01T14:30:00.125Z,2.6
2022-10-01T14:35:00.107Z,2.9
2022-10-01T14:40:00.145Z,2.9
2022-10-01T14:45:00.143Z,2
2022-10-01T14:50:00.116Z,2
2022-10-01T14:55:00.120Z,3.5
2022-10-01T15:00:00.136Z,3.5
2022-10-01T15:05:00.204Z,2.9
2022-10-01T15:10:00.120Z,2.9
2022-10-01T15:15:00.116Z,4.1
2022-10-01T15:20:00.108Z,4.1
2022-10-01T15:25:00.125Z,3.5
2022-10-01T15:30:00.214Z,3.5
2022-10-01T15:35:00.140Z,1.5
2022-10-01T15:40:00.226Z,1.5
2022-10-01T15:45:00.118Z,4.1
2022-10-01T15:50:00.134Z,4.1
2022-10-01T15:55:00.120Z,3.3
2022-10-01T16:00:00.111Z,3.3
2022-10-01T16:05:00.112Z,3.9
2022-10-01T16:10:00.185Z,3.9
2022-10-01T16:15:00.131Z,4.1
2022-10-01T16:20:00.142Z,4.1
2022-10-01T16:25:00.115Z,2.7
2022-10-01T16:30:04.131Z,2.7
2022-10-01T16:35:00.112Z,4.2
2022-10-01T16:40:00.114Z,4.2
2022-10-01T16:45:00.118Z,3.2
2022-10-01T16:50:00.127Z,3.2
2022-10-01T16:55:00.103Z,5.5
2022-10-01T17:00:00.120Z,5.5
2022-10-01T17:05:00.113Z,3.6
2022-10-01T17:10:00.119Z,3.6
2022-10-01T17:15:00.111Z,5.2
2022-10-01T17:20:00.134Z,5.2
2022-10-01T17:25:00.124Z,4.5
2022-10-01T17:30:00.121Z,4.5
2022-10-01T17:35:00.114Z,4
2022-10-01T17:40:00.119Z,4
2022-10-01T17:45:00.127Z,2.7
2022-10-01T17:50:00.136Z,2.7
2022-10-01T17:55:00.146Z,6.1
2022-10-01T18:00:00.132Z,6.1
2022-10-01T18:05:00.109Z,5.4
2022-10-01T18:10:00.120Z,5.4
2022-10-01T18:15:00.130Z,3.6
2022-10-01T18:20:00.151Z,3.6
2022-10-01T18:25:00.122Z,4.4
2022-10-01T18:30:00.126Z,4.4
2022-10-01T18:35:00.143Z,2.8
2022-10-01T18:40:00.157Z,2.8
2022-10-01T18:45:00.140Z,2.8
2022-10-01T18:50:00.131Z,2.8
2022-10-01T18:55:00.129Z,4.2
2022-10-01T19:00:00.131Z,4.2
2022-10-01T19:05:00.117Z,4.3
2022-10-01T19:10:00.133Z,4.3
2022-10-01T19:15:00.119Z,1.9
2022-10-01T19:20:00.130Z,1.9
2022-10-01T19:25:00.103Z,5.2
2022-10-01T19:30:00.132Z,5.2
2022-10-01T19:35:00.119Z,4.1
2022-10-01T19:40:00.131Z,4.1
2022-10-01T19:45:00.167Z,4.5
2022-10-01T19:50:00.110Z,4.5
2022-10-01T19:55:00.119Z,4.1
2022-10-01T20:00:00.112Z,4.1
2022-10-01T20:05:00.106Z,3.8
2022-10-01T20:10:04.438Z,3.8
2022-10-01T20:15:00.127Z,7
2022-10-01T20:20:00.140Z,7
2022-10-01T20:25:00.123Z,5.3
2022-10-01T20:30:00.148Z,5.3
2022-10-01T20:35:00.122Z,7.2
2022-10-01T20:40:00.144Z,7.2
2022-10-01T20:45:00.161Z,5.7
2022-10-01T20:50:00.110Z,5.7
2022-10-01T20:55:00.139Z,5.9
2022-10-01T21:00:00.141Z,5.9
2022-10-01T21:05:00.122Z,8.4
2022-10-01T21:10:00.123Z,8.4
2022-10-01T21:15:00.111Z,7.1
2022-10-01T21:20:00.152Z,7.1
2022-10-01T21:25:00.122Z,6.2
2022-10-01T21:30:00.114Z,6.2
2022-10-01T21:35:00.109Z,7.2
2022-10-01T21:40:00.136Z,7.2
2022-10-01T21:45:00.108Z,6.8
2022-10-01T21:50:00.137Z,6.8
2022-10-01T21:55:00.126Z,6.6
2022-10-01T22:00:00.116Z,6.6
2022-10-01T22:05:00.103Z,7.3
2022-10-01T22:10:00.123Z,7.3
2022-10-01T22:15:00.142Z,6.3
2022-10-01T22:20:00.112Z,6.3
2022-10-01T22:25:00.110Z,8.9
2022-10-01T22:30:00.117Z,8.9
2022-10-01T22:35:00.120Z,11.5
2022-10-01T22:40:00.161Z,11.5
2022-10-01T22:45:00.128Z,6.8
2022-10-01T22:50:00.135Z,6.8
2022-10-01T22:55:00.108Z,9.3
2022-10-01T23:00:00.124Z,9.3
2022-10-01T23:05:00.100Z,9
2022-10-01T23:10:00.112Z,9
2022-10-01T23:15:00.132Z,7.2
2022-10-01T23:20:00.121Z,7.2
2022-10-01T23:25:00.141Z,9
2022-10-01T23:30:00.140Z,9
2022-10-01T23:35:00.116Z,8.4
2022-10-01T23:40:00.131Z,8.4
2022-10-01T23:45:00.117Z,8.3
2022-10-01T23:50:00.136Z,8.3
2022-10-01T23:55:00.123Z,9.5
